createdAt,value
2022-08-02T00:00:04.786Z,34.5
2022-08-02T00:05:10.866Z,34
2022-08-02T00:10:15.996Z,34
2022-08-02T00:15:22.086Z,34
2022-08-02T00:20:28.191Z,34
2022-08-02T00:25:34.282Z,34
2022-08-02T00:30:40.355Z,34
2022-08-02T00:35:46.460Z,34
2022-08-02T00:40:52.556Z,34
2022-08-02T00:45:58.657Z,34
2022-08-02T00:51:04.761Z,34
2022-08-02T00:56:10.853Z,34
2022-08-02T01:01:16.953Z,34
2022-08-02T01:06:23.042Z,34
2022-08-02T01:11:29.134Z,34
2022-08-02T01:16:34.263Z,34.5
2022-08-02T01:21:40.349Z,33
2022-08-02T01:26:46.443Z,33
2022-08-02T01:31:52.528Z,33
2022-08-02T01:36:58.622Z,33
2022-08-02T01:42:04.736Z,33
2022-08-02T01:47:10.833Z,33
2022-08-02T01:52:16.911Z,33
2022-08-02T01:57:23.008Z,33
2022-08-02T02:02:29.109Z,33
2022-08-02T02:07:35.207Z,33
2022-08-02T02:12:41.301Z,33
2022-08-02T02:17:47.402Z,33
2022-08-02T02:22:52.524Z,33
2022-08-02T02:27:58.601Z,33
2022-08-02T02:33:04.706Z,33
2022-08-02T02:38:10.795Z,33
2022-08-02T02:43:16.902Z,33
2022-08-02T02:48:22.997Z,33
2022-08-02T02:53:29.099Z,33
2022-08-02T02:58:35.217Z,33
2022-08-02T03:03:41.284Z,33
2022-08-02T03:08:47.377Z,33
2022-08-02T03:13:53.487Z,33
2022-08-02T03:18:59.571Z,32
2022-08-02T03:24:05.662Z,33
2022-08-02T03:29:10.800Z,33
2022-08-02T03:34:16.871Z,33
2022-08-02T03:39:22.962Z,33
2022-08-02T03:44:29.060Z,33
2022-08-02T03:49:35.166Z,33
2022-08-02T03:54:41.252Z,33
2022-08-02T03:59:47.370Z,32
2022-08-02T04:04:53.451Z,33
2022-08-02T04:09:59.573Z,33
2022-08-02T04:15:05.638Z,33
2022-08-02T04:20:11.743Z,32
2022-08-02T04:25:17.859Z,32
2022-08-02T04:30:23.927Z,32
2022-08-02T04:35:29.032Z,32
2022-08-02T04:40:35.140Z,33
2022-08-02T04:45:41.252Z,32
2022-08-02T04:50:47.325Z,32
2022-08-02T04:55:53.427Z,32
2022-08-02T05:00:59.521Z,32
2022-08-02T05:06:05.604Z,32
2022-08-02T05:11:11.703Z,32
2022-08-02T05:16:17.807Z,32
2022-08-02T05:21:23.905Z,32
2022-08-02T05:26:30.000Z,32
2022-08-02T05:31:36.118Z,32
2022-08-02T05:36:42.199Z,32
2022-08-02T05:41:47.299Z,32
2022-08-02T05:46:53.398Z,32
2022-08-02T05:51:59.481Z,32
2022-08-02T05:57:05.577Z,32
2022-08-02T06:02:11.676Z,32
2022-08-02T06:07:17.775Z,32
2022-08-02T06:12:23.850Z,32
2022-08-02T06:17:29.959Z,32
2022-08-02T06:22:36.063Z,32
2022-08-02T06:27:42.178Z,32
2022-08-02T06:32:48.251Z,32
2022-08-02T06:37:54.344Z,32
2022-08-02T06:43:00.462Z,32
2022-08-02T06:48:05.557Z,32
2022-08-02T06:53:11.647Z,32
2022-08-02T06:58:17.755Z,32
2022-08-02T07:03:23.853Z,32
2022-08-02T07:08:29.949Z,32
2022-08-02T07:13:36.043Z,32
2022-08-02T07:18:42.120Z,32
2022-08-02T07:23:48.216Z,32
2022-08-02T07:28:54.351Z,32
2022-08-02T07:34:00.412Z,32
2022-08-02T07:39:06.520Z,32
2022-08-02T07:44:12.607Z,32
2022-08-02T07:49:18.715Z,32
2022-08-02T07:54:23.816Z,32
2022-08-02T07:59:29.911Z,32
2022-08-02T08:04:35.996Z,32
2022-08-02T08:09:42.111Z,32
2022-08-02T08:14:48.208Z,32
2022-08-02T08:19:54.299Z,32
2022-08-02T08:25:00.393Z,32
2022-08-02T08:30:06.474Z,31
2022-08-02T08:35:12.616Z,31
2022-08-02T08:40:18.709Z,31
2022-08-02T08:45:24.776Z,32
2022-08-02T08:50:30.863Z,31
2022-08-02T08:55:36.971Z,32
2022-08-02T09:00:42.084Z,32
2022-08-02T09:05:48.164Z,32
2022-08-02T09:10:54.271Z,32
2022-08-02T09:16:00.371Z,32
2022-08-02T09:21:06.454Z,32
2022-08-02T09:26:12.562Z,32
2022-08-02T09:31:18.652Z,32
2022-08-02T09:36:24.748Z,32
2022-08-02T09:41:30.886Z,31
2022-08-02T09:46:36.948Z,31
2022-08-02T09:51:43.055Z,31
2022-08-02T09:56:49.135Z,31
2022-08-02T10:01:55.248Z,31
2022-08-02T10:07:00.354Z,31
2022-08-02T10:12:06.459Z,31
2022-08-02T10:17:12.552Z,31
2022-08-02T10:22:18.632Z,31
2022-08-02T10:27:24.762Z,31
2022-08-02T10:32:30.857Z,31
2022-08-02T10:37:35.969Z,31
2022-08-02T10:42:42.072Z,31
2022-08-02T10:47:48.148Z,31
2022-08-02T10:52:54.263Z,31
2022-08-02T10:58:00.341Z,31
2022-08-02T11:03:06.453Z,31
2022-08-02T11:08:12.547Z,30
2022-08-02T11:13:18.653Z,30
2022-08-02T11:18:24.735Z,30
2022-08-02T11:23:30.870Z,30
2022-08-02T11:28:36.937Z,30
2022-08-02T11:33:43.047Z,31
2022-08-02T11:38:49.134Z,31
2022-08-02T11:43:54.250Z,31
2022-08-02T11:49:00.356Z,31
2022-08-02T11:54:06.463Z,31
2022-08-02T11:59:12.557Z,31
2022-08-02T12:04:18.668Z,31
2022-08-02T12:09:24.735Z,31
2022-08-02T12:14:30.851Z,31
2022-08-02T12:19:36.935Z,30
2022-08-02T12:24:43.044Z,31
2022-08-02T12:29:49.159Z,30
2022-08-02T12:34:55.239Z,31
2022-08-02T12:40:01.345Z,31
2022-08-02T12:45:07.440Z,31
2022-08-02T12:50:12.600Z,31
2022-08-02T12:55:18.644Z,31
2022-08-02T13:00:24.749Z,30
2022-08-02T13:05:30.842Z,31
2022-08-02T13:10:36.942Z,30
2022-08-02T13:15:43.056Z,31
2022-08-02T13:20:49.136Z,31
2022-08-02T13:25:55.233Z,31
2022-08-02T13:31:01.336Z,31
2022-08-02T13:36:07.445Z,31
2022-08-02T13:41:13.537Z,31
2022-08-02T13:46:19.619Z,31
2022-08-02T13:51:25.707Z,31
2022-08-02T13:56:30.841Z,31
2022-08-02T14:01:36.922Z,31
2022-08-02T14:06:43.023Z,31
2022-08-02T14:11:49.142Z,30
2022-08-02T14:16:55.216Z,30
2022-08-02T14:22:01.308Z,30
2022-08-02T14:27:07.397Z,30
2022-08-02T14:32:13.501Z,30
2022-08-02T14:37:19.617Z,30
2022-08-02T14:42:25.692Z,30
2022-08-02T14:47:31.791Z,30
2022-08-02T14:52:37.893Z,30
2022-08-02T14:57:43.988Z,30
2022-08-02T15:02:49.088Z,30
2022-08-02T15:07:55.220Z,30
2022-08-02T15:13:01.328Z,30
2022-08-02T15:18:07.392Z,30
2022-08-02T15:23:13.492Z,30
2022-08-02T15:28:19.578Z,30
2022-08-02T15:33:25.673Z,30
2022-08-02T15:38:31.802Z,30
2022-08-02T15:43:37.890Z,30
2022-08-02T15:48:43.975Z,30
2022-08-02T15:53:50.073Z,30
2022-08-02T15:58:56.170Z,30
2022-08-02T16:04:02.258Z,30
2022-08-02T16:09:07.356Z,30
2022-08-02T16:14:13.458Z,30
2022-08-02T16:19:19.555Z,30
2022-08-02T16:24:25.691Z,30
2022-08-02T16:29:31.745Z,29.5
2022-08-02T16:34:37.847Z,30
2022-08-02T16:39:43.937Z,29.5
2022-08-02T16:44:50.030Z,30
2022-08-02T16:49:56.127Z,30
2022-08-02T16:55:02.251Z,30
2022-08-02T17:00:08.352Z,29.5
2022-08-02T17:05:14.464Z,30
2022-08-02T17:10:20.512Z,29.5
2022-08-02T17:15:25.629Z,29.5
2022-08-02T17:20:31.762Z,29.5
2022-08-02T17:25:40.976Z,29.5
2022-08-02T17:30:43.916Z,29.5
2022-08-02T17:35:50.020Z,29.5
2022-08-02T17:40:56.138Z,29.5
2022-08-02T17:46:02.262Z,29.5
2022-08-02T17:51:08.307Z,29.5
2022-08-02T17:56:14.430Z,29.5
2022-08-02T18:01:20.496Z,29
2022-08-02T18:06:26.602Z,29
2022-08-02T18:11:32.695Z,29
2022-08-02T18:16:38.790Z,29
2022-08-02T18:21:43.918Z,29
2022-08-02T18:26:50.027Z,29
2022-08-02T18:31:56.117Z,29
2022-08-02T18:37:02.226Z,29
2022-08-02T18:42:08.275Z,29
2022-08-02T18:47:14.391Z,29
2022-08-02T18:52:20.502Z,29
2022-08-02T18:57:26.584Z,29
2022-08-02T19:02:32.681Z,29
2022-08-02T19:07:38.779Z,29
2022-08-02T19:12:44.848Z,29
2022-08-02T19:17:52.994Z,29
2022-08-02T19:22:57.083Z,29
2022-08-02T19:28:02.188Z,29
2022-08-02T19:33:08.271Z,29
2022-08-02T19:38:14.355Z,29
2022-08-02T19:43:20.457Z,29
2022-08-02T19:48:26.559Z,29
2022-08-02T19:53:32.643Z,29
2022-08-02T19:58:38.763Z,29
2022-08-02T20:03:44.830Z,29
2022-08-02T20:08:50.953Z,29
2022-08-02T20:13:57.057Z,29
2022-08-02T20:19:03.147Z,29
2022-08-02T20:24:09.219Z,29
2022-08-02T20:29:15.307Z,29
2022-08-02T20:34:20.428Z,29
2022-08-02T20:39:26.606Z,29
2022-08-02T20:44:32.607Z,29
2022-08-02T20:49:40.234Z,29
2022-08-02T20:54:44.827Z,29
2022-08-02T20:59:50.912Z,29
2022-08-02T21:04:57.020Z,29
2022-08-02T21:10:03.084Z,29
2022-08-02T21:15:09.200Z,29
2022-08-02T21:20:15.277Z,29
2022-08-02T21:25:21.376Z,29
2022-08-02T21:30:27.465Z,29
2022-08-02T21:35:33.565Z,29
2022-08-02T21:40:38.719Z,29
2022-08-02T21:45:44.785Z,29
2022-08-02T21:50:50.869Z,29
2022-08-02T21:55:56.981Z,29
2022-08-02T22:01:03.059Z,29
2022-08-02T22:06:09.255Z,29
2022-08-02T22:11:15.334Z,29
2022-08-02T22:16:21.429Z,29
2022-08-02T22:21:27.542Z,29
2022-08-02T22:26:33.611Z,29
2022-08-02T22:31:39.731Z,29
2022-08-02T22:36:45.824Z,29
2022-08-02T22:41:51.915Z,29
2022-08-02T22:46:57.071Z,29
2022-08-02T22:52:03.123Z,29
2022-08-02T22:57:09.254Z,29
2022-08-02T23:02:15.311Z,29
2022-08-02T23:07:21.401Z,29
2022-08-02T23:12:27.516Z,29
2022-08-02T23:17:33.603Z,29
2022-08-02T23:22:39.734Z,29
2022-08-02T23:27:45.776Z,29
2022-08-02T23:32:51.883Z,29
2022-08-02T23:37:57.973Z,29
2022-08-02T23:43:04.082Z,29
2022-08-02T23:48:10.179Z,29
2022-08-02T23:53:15.296Z,29
2022-08-02T23:58:21.406Z,29
